createdAt,value
2018-08-07T00:01:34.036Z,0
2018-08-07T00:02:35.269Z,0
2018-08-07T00:04:35.509Z,0
2018-08-07T00:05:36.615Z,0
2018-08-07T00:06:38.911Z,0
2018-08-07T00:15:35.934Z,0
2018-08-07T00:16:38.050Z,0
2018-08-07T00:18:26.121Z,0
2018-08-07T00:22:39.795Z,0
2018-08-07T00:26:27.946Z,0
2018-08-07T00:27:29.116Z,0
2018-08-07T00:28:29.956Z,0
2018-08-07T00:30:21.471Z,0
2018-08-07T00:31:22.205Z,0
2018-08-07T00:32:23.214Z,0
2018-08-07T00:34:39.589Z,0
2018-08-07T00:35:40.446Z,0
2018-08-07T00:36:41.593Z,0
2018-08-07T00:38:44.240Z,0
2018-08-07T00:39:44.979Z,0
2018-08-07T00:40:45.718Z,0
2018-08-07T00:43:02.096Z,0
2018-08-07T00:44:02.904Z,0
2018-08-07T00:45:03.716Z,0
2018-08-07T00:46:04.456Z,0
2018-08-07T00:47:05.227Z,0
2018-08-07T00:48:06.066Z,0
2018-08-07T00:49:06.883Z,0
2018-08-07T00:50:07.724Z,0
2018-08-07T00:51:08.487Z,0
2018-08-07T00:52:09.345Z,0
2018-08-07T00:53:10.204Z,0
2018-08-07T00:54:11.170Z,0
2018-08-07T00:55:11.925Z,0
2018-08-07T00:56:12.730Z,0
2018-08-07T00:57:13.597Z,0
2018-08-07T00:58:14.360Z,0
2018-08-07T01:01:46.351Z,0
2018-08-07T01:02:47.107Z,0
2018-08-07T01:03:48.116Z,0
2018-08-07T01:04:48.877Z,0
2018-08-07T01:05:49.631Z,0
2018-08-07T01:06:50.560Z,0
2018-08-07T01:07:51.294Z,0
2018-08-07T01:08:52.188Z,0
2018-08-07T01:09:53.117Z,0
2018-08-07T01:10:54.221Z,0
2018-08-07T01:11:55.205Z,0
2018-08-07T01:12:56.083Z,0
2018-08-07T01:14:39.571Z,0
2018-08-07T01:15:40.313Z,0
2018-08-07T01:17:56.738Z,0
2018-08-07T01:18:57.473Z,0
2018-08-07T01:19:58.187Z,0
2018-08-07T01:20:59.160Z,0
2018-08-07T01:21:59.874Z,0
2018-08-07T01:23:00.793Z,0
2018-08-07T01:24:01.513Z,0
2018-08-07T01:25:02.493Z,0
2018-08-07T01:26:03.226Z,0
2018-08-07T01:27:03.975Z,0
2018-08-07T01:28:04.731Z,0
2018-08-07T01:29:05.462Z,0
2018-08-07T01:30:06.189Z,0
2018-08-07T01:31:07.166Z,0
2018-08-07T01:32:07.884Z,0
2018-08-07T01:33:08.618Z,0
2018-08-07T01:34:09.353Z,0
2018-08-07T01:35:10.088Z,0
2018-08-07T01:36:11.066Z,0
2018-08-07T01:37:11.779Z,0
2018-08-07T01:38:12.518Z,0
2018-08-07T01:39:13.503Z,0
2018-08-07T01:40:14.223Z,0
2018-08-07T01:41:14.951Z,0
2018-08-07T01:42:15.677Z,0
2018-08-07T01:43:16.644Z,0
2018-08-07T01:44:17.368Z,0
2018-08-07T01:45:18.091Z,0
2018-08-07T01:46:18.851Z,0
2018-08-07T01:47:19.589Z,0
2018-08-07T01:48:20.316Z,0
2018-08-07T01:49:21.047Z,0
2018-08-07T01:50:21.771Z,0
2018-08-07T01:51:22.512Z,0
2018-08-07T01:52:23.233Z,0
2018-08-07T01:53:23.971Z,0
2018-08-07T01:54:24.711Z,0
2018-08-07T01:55:25.442Z,0
2018-08-07T01:56:26.508Z,0
2018-08-07T01:57:27.300Z,0
2018-08-07T01:59:43.613Z,0
2018-08-07T02:01:59.943Z,0
2018-08-07T02:03:00.760Z,0
2018-08-07T02:04:01.574Z,0
2018-08-07T02:05:02.366Z,0
2018-08-07T02:06:03.160Z,0
2018-08-07T02:07:04.405Z,0
2018-08-07T02:08:05.434Z,0
2018-08-07T02:09:06.153Z,0
2018-08-07T02:10:06.889Z,0
2018-08-07T02:11:07.880Z,0
2018-08-07T02:12:08.998Z,0
2018-08-07T02:13:09.732Z,0
2018-08-07T02:14:10.903Z,0
2018-08-07T02:15:11.682Z,0
2018-08-07T02:16:12.423Z,0
2018-08-07T02:17:13.155Z,0
2018-08-07T02:18:13.882Z,0
2018-08-07T02:19:14.605Z,0
2018-08-07T02:20:58.351Z,0
2018-08-07T02:21:59.076Z,0
2018-08-07T02:24:15.637Z,0
2018-08-07T02:25:16.371Z,0
2018-08-07T02:26:17.157Z,0
2018-08-07T02:28:33.542Z,0
2018-08-07T02:30:49.843Z,0
2018-08-07T02:31:50.840Z,0
2018-08-07T02:32:51.617Z,0
2018-08-07T02:33:52.414Z,0
2018-08-07T02:34:53.394Z,0
2018-08-07T02:35:54.469Z,0
2018-08-07T02:36:55.205Z,0
2018-08-07T02:37:56.250Z,0
2018-08-07T02:38:57.048Z,0
2018-08-07T02:39:58.023Z,0
2018-08-07T02:40:58.740Z,0
2018-08-07T02:41:59.464Z,0
2018-08-07T02:43:00.205Z,0
2018-08-07T02:44:00.943Z,0
2018-08-07T02:45:01.663Z,0
2018-08-07T02:46:02.413Z,0
2018-08-07T02:47:03.506Z,0
2018-08-07T02:48:04.307Z,0
2018-08-07T02:49:05.288Z,0
2018-08-07T02:51:21.522Z,0
2018-08-07T02:52:22.241Z,0
2018-08-07T02:53:23.253Z,0
2018-08-07T02:54:24.020Z,0
2018-08-07T02:55:24.736Z,0
2018-08-07T02:56:25.472Z,0
2018-08-07T02:57:26.450Z,0
2018-08-07T02:58:27.178Z,0
2018-08-07T02:59:27.906Z,0
2018-08-07T03:00:28.657Z,0
2018-08-07T03:01:30.061Z,0
2018-08-07T03:03:46.591Z,0
2018-08-07T03:04:47.373Z,0
2018-08-07T03:05:48.127Z,0
2018-08-07T03:06:49.129Z,0
2018-08-07T03:07:49.861Z,0
2018-08-07T03:08:50.588Z,0
2018-08-07T03:09:51.306Z,0
2018-08-07T03:10:52.104Z,0
2018-08-07T03:11:52.902Z,0
2018-08-07T03:12:53.704Z,0
2018-08-07T03:13:54.690Z,0
2018-08-07T03:14:55.479Z,0
2018-08-07T03:15:56.930Z,4
2018-08-07T03:19:28.711Z,4
2018-08-07T03:20:29.463Z,4
2018-08-07T03:21:30.294Z,4
2018-08-07T03:22:31.023Z,4
2018-08-07T03:23:32.225Z,8
2018-08-07T03:25:48.546Z,8
2018-08-07T03:28:04.834Z,12
2018-08-07T03:30:21.136Z,20
2018-08-07T03:31:22.213Z,20
2018-08-07T03:33:09.710Z,28
2018-08-07T03:34:10.839Z,32
2018-08-07T03:35:11.833Z,36
2018-08-07T03:36:12.645Z,40
2018-08-07T03:39:01.919Z,56
2018-08-07T03:40:02.963Z,68
2018-08-07T03:41:03.718Z,72
2018-08-07T03:42:04.504Z,84
2018-08-07T03:43:06.162Z,92
2018-08-07T03:44:06.898Z,104
2018-08-07T03:45:50.345Z,124
2018-08-07T03:46:51.106Z,132
2018-08-07T03:47:51.918Z,148
2018-08-07T03:48:53.017Z,164
2018-08-07T03:49:53.781Z,184
2018-08-07T03:50:54.764Z,204
2018-08-07T03:51:55.478Z,224
2018-08-07T03:52:56.253Z,244
2018-08-07T03:53:56.986Z,268
2018-08-07T03:54:57.982Z,288
2018-08-07T03:55:58.712Z,316
2018-08-07T03:56:59.453Z,344
2018-08-07T03:58:00.427Z,372
2018-08-07T03:59:01.526Z,400
2018-08-07T04:00:02.483Z,424
2018-08-07T04:01:03.200Z,456
2018-08-07T04:02:03.937Z,484
2018-08-07T04:03:04.660Z,516
2018-08-07T04:04:05.387Z,548
2018-08-07T04:05:06.185Z,580
2018-08-07T04:06:07.534Z,616
2018-08-07T04:07:08.252Z,652
2018-08-07T04:08:09.010Z,692
2018-08-07T04:09:09.737Z,724
2018-08-07T04:10:10.484Z,760
2018-08-07T04:11:11.203Z,804
2018-08-07T04:12:11.926Z,840
2018-08-07T04:13:12.650Z,884
2018-08-07T04:14:13.653Z,924
2018-08-07T04:15:14.358Z,964
2018-08-07T04:16:15.080Z,1012
2018-08-07T04:17:16.093Z,1060
2018-08-07T04:18:16.815Z,1116
2018-08-07T04:19:17.546Z,1168
2018-08-07T04:20:18.273Z,1224
2018-08-07T04:21:19.293Z,1280
2018-08-07T04:22:20.021Z,1340
2018-08-07T04:23:20.740Z,1400
2018-08-07T04:24:21.472Z,1456
2018-08-07T04:25:22.249Z,1512
2018-08-07T04:26:22.983Z,1576
2018-08-07T04:27:23.717Z,1644
2018-08-07T04:28:24.434Z,1712
2018-08-07T04:29:25.166Z,1784
2018-08-07T04:30:25.885Z,1852
2018-08-07T04:31:26.868Z,1920
2018-08-07T04:32:27.603Z,1980
2018-08-07T04:33:28.373Z,2044
2018-08-07T04:34:29.181Z,2096
2018-08-07T04:35:29.837Z,2144
2018-08-07T04:36:30.559Z,2196
2018-08-07T04:37:31.284Z,2236
2018-08-07T04:38:32.075Z,2276
2018-08-07T04:39:32.823Z,2316
2018-08-07T04:40:33.553Z,2368
2018-08-07T04:41:34.531Z,2420
2018-08-07T04:42:35.254Z,2476
2018-08-07T04:43:35.997Z,2528
2018-08-07T04:44:36.730Z,2584
2018-08-07T04:45:37.461Z,2604
2018-08-07T04:46:38.189Z,2616
2018-08-07T04:47:38.931Z,2632
2018-08-07T04:48:39.668Z,2636
2018-08-07T04:49:40.450Z,2628
2018-08-07T04:50:41.174Z,2660
2018-08-07T04:51:41.921Z,2688
2018-08-07T04:52:42.647Z,2740
2018-08-07T04:53:43.375Z,2792
2018-08-07T04:54:44.151Z,2844
2018-08-07T04:57:00.517Z,2980
2018-08-07T04:58:01.301Z,3048
2018-08-07T04:59:01.977Z,3116
2018-08-07T05:00:02.701Z,3180
2018-08-07T05:01:03.433Z,3248
2018-08-07T05:02:04.157Z,3308
2018-08-07T05:03:04.918Z,3368
2018-08-07T05:04:05.657Z,3416
2018-08-07T05:05:06.390Z,3472
2018-08-07T05:06:07.114Z,3528
2018-08-07T05:07:07.843Z,3592
2018-08-07T05:08:08.636Z,3648
2018-08-07T05:09:09.367Z,3712
2018-08-07T05:10:10.096Z,3768
2018-08-07T05:11:10.822Z,3824
2018-08-07T05:12:11.542Z,3880
2018-08-07T05:13:12.288Z,3924
2018-08-07T05:14:13.050Z,3980
2018-08-07T05:15:13.735Z,4040
2018-08-07T05:16:14.465Z,4108
2018-08-07T05:17:15.186Z,4172
2018-08-07T05:18:16.510Z,4236
2018-08-07T05:19:17.240Z,4300
2018-08-07T05:20:17.974Z,4364
2018-08-07T05:21:18.700Z,4508
2018-08-07T05:22:19.432Z,4712
2018-08-07T05:23:20.214Z,5204
2018-08-07T05:24:20.954Z,5380
2018-08-07T05:25:21.950Z,5036
2018-08-07T05:26:22.706Z,5316
2018-08-07T05:27:23.443Z,5792
2018-08-07T05:28:24.175Z,5724
2018-08-07T05:29:24.896Z,6052
2018-08-07T05:30:25.616Z,6232
2018-08-07T05:31:26.348Z,5852
2018-08-07T05:32:27.070Z,5876
2018-08-07T05:33:28.154Z,5464
2018-08-07T05:34:28.911Z,5420
2018-08-07T05:35:29.631Z,5992
2018-08-07T05:36:30.368Z,6264
2018-08-07T05:37:31.089Z,7036
2018-08-07T05:38:31.814Z,8276
2018-08-07T05:39:32.555Z,7476
2018-08-07T05:40:33.313Z,6644
2018-08-07T05:41:34.023Z,6744
2018-08-07T05:42:34.772Z,6368
2018-08-07T05:43:35.486Z,6324
2018-08-07T05:44:36.214Z,6704
2018-08-07T05:45:37.514Z,7516
2018-08-07T05:46:38.227Z,7928
2018-08-07T05:47:38.982Z,7920
2018-08-07T05:48:39.758Z,8180
2018-08-07T05:49:40.488Z,8364
2018-08-07T05:50:41.361Z,8396
2018-08-07T05:51:41.945Z,8332
2018-08-07T05:52:42.677Z,8336
2018-08-07T05:53:43.392Z,8428
2018-08-07T05:54:44.122Z,8724
2018-08-07T05:55:44.850Z,9184
2018-08-07T05:56:45.572Z,9468
2018-08-07T05:57:46.321Z,9608
2018-08-07T05:58:47.059Z,9548
2018-08-07T05:59:47.813Z,9328
2018-08-07T06:00:48.547Z,9024
2018-08-07T06:01:49.269Z,8940
2018-08-07T06:02:50.005Z,8488
2018-08-07T06:03:50.737Z,8372
2018-08-07T06:04:51.463Z,8340
2018-08-07T06:05:52.190Z,8332
2018-08-07T06:06:52.929Z,8320
2018-08-07T06:07:53.670Z,8324
2018-08-07T06:08:54.754Z,8220
2018-08-07T06:09:55.498Z,8120
2018-08-07T06:10:56.308Z,8008
2018-08-07T06:11:56.960Z,7892
2018-08-07T06:12:57.695Z,7880
2018-08-07T06:13:58.431Z,7924
2018-08-07T06:14:59.161Z,8024
2018-08-07T06:15:59.887Z,8168
2018-08-07T06:17:00.624Z,8440
2018-08-07T06:18:01.417Z,8920
2018-08-07T06:19:02.165Z,9588
2018-08-07T06:20:02.872Z,10560
2018-08-07T06:21:03.609Z,11448
2018-08-07T06:22:04.332Z,12668
2018-08-07T06:23:05.120Z,13716
2018-08-07T06:24:05.853Z,14844
2018-08-07T06:25:06.587Z,15424
2018-08-07T06:26:07.317Z,15376
2018-08-07T06:27:08.051Z,14960
2018-08-07T06:28:08.785Z,14272
2018-08-07T06:29:09.532Z,13780
2018-08-07T06:30:10.262Z,13736
2018-08-07T06:31:10.998Z,13572
2018-08-07T06:32:11.728Z,13392
2018-08-07T06:33:12.471Z,13596
2018-08-07T06:34:13.213Z,13764
2018-08-07T06:35:13.948Z,13808
2018-08-07T06:36:14.681Z,13664
2018-08-07T06:37:15.416Z,13376
2018-08-07T06:38:16.134Z,13288
2018-08-07T06:39:16.864Z,13408
2018-08-07T06:40:17.589Z,13380
2018-08-07T06:41:18.334Z,13664
2018-08-07T06:42:19.087Z,13784
2018-08-07T06:43:19.817Z,14380
2018-08-07T06:44:20.552Z,14696
2018-08-07T06:45:21.290Z,14848
2018-08-07T06:46:22.032Z,14544
2018-08-07T06:47:22.769Z,14544
2018-08-07T06:48:23.499Z,15460
2018-08-07T06:49:24.230Z,15800
2018-08-07T06:50:25.015Z,16396
2018-08-07T06:51:25.714Z,16932
2018-08-07T06:52:26.461Z,17952
2018-08-07T06:53:27.192Z,17824
2018-08-07T06:54:27.914Z,17296
2018-08-07T06:55:28.645Z,16644
2018-08-07T06:56:29.378Z,16768
2018-08-07T06:57:30.112Z,16632
2018-08-07T06:58:30.840Z,16356
2018-08-07T06:59:31.576Z,16244
2018-08-07T07:00:32.307Z,16296
2018-08-07T07:01:33.291Z,16024
2018-08-07T07:02:34.033Z,16280
2018-08-07T07:03:34.753Z,15612
2018-08-07T07:04:35.493Z,15664
2018-08-07T07:05:36.220Z,15720
2018-08-07T07:06:36.945Z,15924
2018-08-07T07:07:37.740Z,16760
2018-08-07T07:08:38.791Z,16884
2018-08-07T07:09:39.584Z,17468
2018-08-07T07:10:40.369Z,17684
2018-08-07T07:11:41.101Z,18336
2018-08-07T07:12:41.843Z,17684
2018-08-07T07:14:58.141Z,17396
2018-08-07T07:15:58.820Z,16100
2018-08-07T07:16:59.561Z,15448
2018-08-07T07:18:00.308Z,14300
2018-08-07T07:19:01.050Z,13296
2018-08-07T07:21:27.235Z,11888
2018-08-07T07:22:27.968Z,11708
2018-08-07T07:24:44.299Z,12132
2018-08-07T07:25:45.059Z,12240
2018-08-07T07:26:45.835Z,12208
2018-08-07T07:27:46.523Z,12160
2018-08-07T07:28:47.514Z,12436
2018-08-07T07:29:48.239Z,12816
2018-08-07T07:30:48.987Z,12656
2018-08-07T07:31:49.716Z,14516
2018-08-07T07:32:50.449Z,12980
2018-08-07T07:33:51.196Z,13980
2018-08-07T07:34:51.933Z,15504
2018-08-07T07:35:52.671Z,17500
2018-08-07T07:36:53.403Z,17984
2018-08-07T07:37:54.135Z,21408
2018-08-07T07:38:54.885Z,38848
2018-08-07T07:39:55.665Z,28288
2018-08-07T07:40:56.399Z,21856
2018-08-07T07:41:57.136Z,27008
2018-08-07T07:42:57.871Z,38624
2018-08-07T07:43:58.600Z,19680
2018-08-07T07:44:59.374Z,18880
2018-08-07T07:46:00.115Z,33760
2018-08-07T07:47:00.916Z,36640
2018-08-07T07:48:01.590Z,52192
2018-08-07T07:49:02.317Z,49024
2018-08-07T07:50:03.099Z,51040
2018-08-07T07:51:03.827Z,51744
2018-08-07T07:52:04.572Z,55104
2018-08-07T07:53:05.293Z,55488
2018-08-07T07:54:06.348Z,55648
2018-08-07T07:55:07.376Z,55104
2018-08-07T07:56:08.171Z,54240
2018-08-07T07:57:08.911Z,57056
2018-08-07T07:58:09.649Z,57184
2018-08-07T07:59:10.644Z,57888
2018-08-07T08:00:11.369Z,59936
2018-08-07T08:01:12.112Z,17148
2018-08-07T08:02:12.833Z,55520
2018-08-07T08:03:13.814Z,60416
2018-08-07T08:04:14.556Z,60672
2018-08-07T08:05:15.347Z,60864
2018-08-07T08:06:16.035Z,60128
2018-08-07T08:07:16.767Z,61696
2018-08-07T08:08:17.518Z,61504
2018-08-07T08:09:18.263Z,59424
2018-08-07T08:10:18.995Z,59200
2018-08-07T08:11:19.729Z,60992
2018-08-07T08:13:37.802Z,60352
2018-08-07T08:14:38.557Z,59488
2018-08-07T08:15:39.334Z,60992
2018-08-07T08:17:22.844Z,64032
2018-08-07T08:18:25.074Z,60416
2018-08-07T08:19:25.862Z,59168
2018-08-07T08:20:26.611Z,59936
2018-08-07T08:21:27.390Z,58528
2018-08-07T08:22:28.126Z,55488
2018-08-07T08:23:28.921Z,54016
2018-08-07T08:24:29.718Z,53152
2018-08-07T08:25:30.500Z,51168
2018-08-07T08:27:46.830Z,59200
2018-08-07T08:28:47.864Z,65536
2018-08-07T08:29:48.689Z,66656
2018-08-07T08:30:49.470Z,60768
2018-08-07T08:31:50.209Z,55744
2018-08-07T08:32:51.233Z,53408
2018-08-07T08:33:52.275Z,53856
2018-08-07T08:34:53.100Z,54688
2018-08-07T08:38:12.890Z,61792
2018-08-07T08:39:13.687Z,66944
2018-08-07T08:40:14.485Z,67968
2018-08-07T08:42:30.818Z,58304
2018-08-07T08:43:31.601Z,54976
2018-08-07T08:44:32.340Z,51616
2018-08-07T08:45:33.104Z,53536
2018-08-07T08:46:33.840Z,60160
2018-08-07T08:47:34.584Z,64960
2018-08-07T08:48:35.614Z,66976
2018-08-07T08:49:36.382Z,67872
2018-08-07T08:50:37.169Z,67776
2018-08-07T08:51:38.565Z,67744
2018-08-07T08:52:39.304Z,67872
2018-08-07T08:53:40.100Z,68576
2018-08-07T08:54:40.908Z,69920
2018-08-07T08:55:41.641Z,72640
2018-08-07T08:56:42.841Z,75168
2018-08-07T08:58:59.214Z,70240
2018-08-07T09:00:00.553Z,72448
2018-08-07T09:01:01.289Z,76672
2018-08-07T09:02:02.035Z,76672
2018-08-07T09:03:02.751Z,72768
2018-08-07T09:04:03.564Z,70656
2018-08-07T09:05:04.323Z,73504
2018-08-07T09:06:05.143Z,77952
2018-08-07T09:07:05.889Z,78496
2018-08-07T09:08:06.630Z,75168
2018-08-07T09:09:07.381Z,72224
2018-08-07T09:10:08.171Z,72064
2018-08-07T09:11:08.900Z,74016
2018-08-07T09:12:09.652Z,75584
2018-08-07T09:13:10.386Z,76000
2018-08-07T09:14:11.138Z,76800
2018-08-07T09:15:11.955Z,80000
2018-08-07T09:16:12.691Z,82688
2018-08-07T09:17:13.457Z,82208
2018-08-07T09:18:14.179Z,78688
2018-08-07T09:19:14.914Z,78080
2018-08-07T09:20:15.656Z,79456
2018-08-07T09:21:16.464Z,82848
2018-08-07T09:22:17.208Z,83360
2018-08-07T09:23:17.940Z,81600
2018-08-07T09:24:18.701Z,79520
2018-08-07T09:25:19.554Z,79616
2018-08-07T09:26:20.273Z,82688
2018-08-07T09:27:21.016Z,85216
2018-08-07T09:28:21.746Z,87040
2018-08-07T09:29:22.496Z,85664
2018-08-07T09:30:23.246Z,84032
2018-08-07T09:31:24.341Z,84928
2018-08-07T09:32:25.342Z,85568
2018-08-07T09:33:26.113Z,86464
2018-08-07T09:34:26.829Z,85952
2018-08-07T09:35:27.572Z,82240
2018-08-07T09:36:28.319Z,78560
2018-08-07T09:37:29.057Z,76096
2018-08-07T09:38:29.810Z,76032
2018-08-07T09:39:30.709Z,76800
2018-08-07T09:40:31.743Z,76864
2018-08-07T09:41:32.636Z,76800
2018-08-07T09:42:33.374Z,79648
2018-08-07T09:43:34.136Z,85504
2018-08-07T09:44:34.882Z,90752
2018-08-07T09:45:35.624Z,90560
2018-08-07T09:46:36.750Z,87040
2018-08-07T09:47:37.471Z,83424
2018-08-07T09:48:38.210Z,82720
2018-08-07T09:49:38.962Z,81824
2018-08-07T09:50:39.683Z,82016
2018-08-07T09:51:40.482Z,81760
2018-08-07T09:52:41.213Z,82592
2018-08-07T09:53:42.207Z,82688
2018-08-07T09:54:42.951Z,83168
2018-08-07T09:55:43.693Z,82592
2018-08-07T09:56:44.446Z,83008
2018-08-07T09:57:45.178Z,84640
2018-08-07T09:58:45.912Z,85344
2018-08-07T09:59:46.644Z,84096
2018-08-07T10:00:47.389Z,80576
2018-08-07T10:01:48.125Z,76896
2018-08-07T10:02:48.871Z,76384
2018-08-07T10:03:49.612Z,76480
2018-08-07T10:04:50.349Z,77312
2018-08-07T10:05:51.332Z,77952
2018-08-07T10:06:52.065Z,78944
2018-08-07T10:07:52.822Z,80512
2018-08-07T10:08:53.743Z,81984
2018-08-07T10:09:54.929Z,84928
2018-08-07T10:10:55.809Z,88192
2018-08-07T10:11:56.557Z,88864
2018-08-07T10:12:57.311Z,87584
2018-08-07T10:13:58.038Z,86144
2018-08-07T10:14:58.779Z,88000
2018-08-07T10:15:59.543Z,90976
2018-08-07T10:17:00.284Z,92896
2018-08-07T10:18:01.043Z,90496
2018-08-07T10:19:01.770Z,86784
2018-08-07T10:20:02.515Z,87008
2018-08-07T10:21:03.273Z,89568
2018-08-07T10:22:04.023Z,92448
2018-08-07T10:23:04.763Z,91232
2018-08-07T10:24:05.513Z,87040
2018-08-07T10:25:06.259Z,85536
2018-08-07T10:26:06.999Z,86368
2018-08-07T10:27:07.743Z,86976
2018-08-07T10:28:08.483Z,86816
2018-08-07T10:29:09.500Z,84320
2018-08-07T10:30:10.233Z,83392
2018-08-07T10:31:10.983Z,85216
2018-08-07T10:32:11.731Z,88416
2018-08-07T10:33:12.482Z,91168
2018-08-07T10:34:13.230Z,94016
2018-08-07T10:35:14.215Z,93376
2018-08-07T10:36:14.958Z,90752
2018-08-07T10:37:15.688Z,85888
2018-08-07T10:38:16.439Z,82592
2018-08-07T10:39:17.176Z,82624
2018-08-07T10:40:17.915Z,85280
2018-08-07T10:41:18.716Z,88480
2018-08-07T10:42:19.459Z,87328
2018-08-07T10:43:20.267Z,82528
2018-08-07T10:44:20.948Z,80128
2018-08-07T10:45:21.694Z,81664
2018-08-07T10:46:22.508Z,85984
2018-08-07T10:47:23.241Z,87456
2018-08-07T10:48:23.976Z,87936
2018-08-07T10:49:24.733Z,87488
2018-08-07T10:50:25.486Z,85888
2018-08-07T10:51:26.227Z,88608
2018-08-07T10:52:26.970Z,91712
2018-08-07T10:53:27.722Z,95456
2018-08-07T10:54:28.466Z,94176
2018-08-07T10:55:29.252Z,89184
2018-08-07T10:56:30.004Z,85024
2018-08-07T10:57:30.744Z,84672
2018-08-07T10:58:31.486Z,86528
2018-08-07T10:59:32.230Z,88384
2018-08-07T11:00:33.319Z,86912
2018-08-07T11:01:34.061Z,80640
2018-08-07T11:02:34.822Z,75968
2018-08-07T11:03:35.568Z,75328
2018-08-07T11:04:36.343Z,83744
2018-08-07T11:05:37.456Z,95104
2018-08-07T11:06:38.185Z,101216
2018-08-07T11:07:38.933Z,98144
2018-08-07T11:08:39.675Z,92640
2018-08-07T11:09:40.422Z,88384
2018-08-07T11:10:41.174Z,89152
2018-08-07T11:11:41.920Z,91936
2018-08-07T11:12:42.660Z,96608
2018-08-07T11:13:43.423Z,100032
2018-08-07T11:14:44.161Z,103776
2018-08-07T11:15:44.955Z,104608
2018-08-07T11:16:45.700Z,106272
2018-08-07T11:17:46.471Z,104704
2018-08-07T11:18:47.204Z,100704
2018-08-07T11:19:48.194Z,96480
2018-08-07T11:20:48.941Z,99296
2018-08-07T11:21:49.683Z,101856
2018-08-07T11:22:50.425Z,103616
2018-08-07T11:23:51.164Z,103040
2018-08-07T11:24:51.987Z,102464
2018-08-07T11:25:52.695Z,100160
2018-08-07T11:26:53.446Z,98496
2018-08-07T11:27:54.199Z,96608
2018-08-07T11:28:54.939Z,96160
2018-08-07T11:29:55.701Z,96832
2018-08-07T11:30:56.417Z,97056
2018-08-07T11:31:57.221Z,94112
2018-08-07T11:32:58.212Z,91648
2018-08-07T11:33:58.963Z,88928
2018-08-07T11:34:59.704Z,89696
2018-08-07T11:36:00.492Z,92000
2018-08-07T11:37:01.550Z,97376
2018-08-07T11:38:02.288Z,99424
2018-08-07T11:39:03.051Z,100448
2018-08-07T11:40:03.796Z,101696
2018-08-07T11:41:04.551Z,101920
2018-08-07T11:42:05.632Z,100896
2018-08-07T11:43:06.393Z,96736
2018-08-07T11:44:07.187Z,96448
2018-08-07T11:45:07.928Z,95968
2018-08-07T11:46:08.681Z,100768
2018-08-07T11:47:09.750Z,100736
2018-08-07T11:48:10.809Z,92128
2018-08-07T11:49:11.502Z,88512
2018-08-07T11:50:12.244Z,86016
2018-08-07T11:51:12.988Z,88352
2018-08-07T11:52:13.780Z,88928
2018-08-07T11:53:14.532Z,88928
2018-08-07T11:54:15.277Z,89024
2018-08-07T11:55:16.029Z,88576
2018-08-07T11:56:16.789Z,89856
2018-08-07T11:57:17.539Z,89216
2018-08-07T11:58:18.269Z,92128
2018-08-07T11:59:19.008Z,95040
2018-08-07T12:00:19.761Z,96096
2018-08-07T12:01:20.512Z,98752
2018-08-07T12:02:21.269Z,96896
2018-08-07T12:03:22.003Z,90144
2018-08-07T12:04:22.744Z,84032
2018-08-07T12:05:23.495Z,81888
2018-08-07T12:06:24.246Z,82208
2018-08-07T12:07:24.995Z,85440
2018-08-07T12:08:25.732Z,89216
2018-08-07T12:09:26.477Z,95456
2018-08-07T12:10:27.276Z,99808
2018-08-07T12:11:28.048Z,100576
2018-08-07T12:12:28.794Z,96704
2018-08-07T12:13:29.552Z,89984
2018-08-07T12:14:30.306Z,85632
2018-08-07T12:15:31.065Z,84736
2018-08-07T12:16:31.814Z,86848
2018-08-07T12:17:32.560Z,89056
2018-08-07T12:18:33.296Z,87616
2018-08-07T12:19:34.052Z,87104
2018-08-07T12:20:35.051Z,88096
2018-08-07T12:21:36.059Z,93344
2018-08-07T12:22:36.781Z,94944
2018-08-07T12:23:37.530Z,94560
2018-08-07T12:24:38.278Z,91456
2018-08-07T12:25:39.120Z,89792
2018-08-07T12:26:39.823Z,91360
2018-08-07T12:27:40.593Z,93472
2018-08-07T12:28:41.320Z,94560
2018-08-07T12:29:42.068Z,90368
2018-08-07T12:30:42.837Z,86528
2018-08-07T12:31:43.591Z,83744
2018-08-07T12:32:44.334Z,85312
2018-08-07T12:33:45.078Z,86912
2018-08-07T12:34:45.829Z,85408
2018-08-07T12:35:46.573Z,85088
2018-08-07T12:36:47.318Z,86848
2018-08-07T12:37:48.063Z,87616
2018-08-07T12:38:48.808Z,89952
2018-08-07T12:39:49.555Z,89632
2018-08-07T12:40:50.313Z,91296
2018-08-07T12:41:51.058Z,91840
2018-08-07T12:42:52.109Z,89088
2018-08-07T12:43:52.853Z,86176
2018-08-07T12:44:53.602Z,84736
2018-08-07T12:45:54.351Z,83584
2018-08-07T12:46:55.096Z,80192
2018-08-07T12:47:55.864Z,77856
2018-08-07T12:48:56.615Z,76320
2018-08-07T12:49:57.369Z,74656
2018-08-07T12:50:58.102Z,73184
2018-08-07T12:51:58.852Z,75232
2018-08-07T12:52:59.948Z,77856
2018-08-07T12:54:00.710Z,79424
2018-08-07T12:55:01.461Z,79360
2018-08-07T12:56:02.211Z,75488
2018-08-07T12:57:02.958Z,69952
2018-08-07T12:58:03.757Z,67712
2018-08-07T12:59:04.506Z,67648
2018-08-07T13:00:05.252Z,71424
2018-08-07T13:01:05.996Z,77600
2018-08-07T13:02:06.740Z,80288
2018-08-07T13:03:07.492Z,78560
2018-08-07T13:04:08.239Z,77088
2018-08-07T13:05:08.991Z,77280
2018-08-07T13:06:09.740Z,77216
2018-08-07T13:07:10.556Z,75392
2018-08-07T13:08:11.300Z,74176
2018-08-07T13:09:12.042Z,75744
2018-08-07T13:10:12.787Z,78528
2018-08-07T13:11:13.548Z,83072
2018-08-07T13:12:14.285Z,87232
2018-08-07T13:13:15.034Z,86016
2018-08-07T13:14:15.777Z,82080
2018-08-07T13:15:16.525Z,76448
2018-08-07T13:16:17.269Z,73376
2018-08-07T13:17:18.090Z,75232
2018-08-07T13:18:18.793Z,78144
2018-08-07T13:19:19.555Z,80224
2018-08-07T13:20:20.298Z,80608
2018-08-07T13:21:21.043Z,81664
2018-08-07T13:22:21.786Z,78976
2018-08-07T13:23:22.594Z,76768
2018-08-07T13:24:23.339Z,76480
2018-08-07T13:25:24.088Z,79040
2018-08-07T13:26:24.870Z,79936
2018-08-07T13:27:25.584Z,80096
2018-08-07T13:28:26.335Z,79264
2018-08-07T13:29:27.091Z,79584
2018-08-07T13:30:27.836Z,80416
2018-08-07T13:31:28.847Z,81280
2018-08-07T13:32:29.591Z,80256
2018-08-07T13:33:30.331Z,81280
2018-08-07T13:34:31.081Z,81536
2018-08-07T13:35:31.874Z,81952
2018-08-07T13:36:32.621Z,81152
2018-08-07T13:37:33.363Z,78080
2018-08-07T13:38:34.115Z,77248
2018-08-07T13:39:34.852Z,77472
2018-08-07T13:40:35.593Z,80000
2018-08-07T13:41:36.336Z,82912
2018-08-07T13:42:37.085Z,86080
2018-08-07T13:43:37.852Z,88128
2018-08-07T13:44:38.584Z,86112
2018-08-07T13:45:39.325Z,80352
2018-08-07T13:46:40.074Z,73600
2018-08-07T13:47:40.825Z,72096
2018-08-07T13:48:41.571Z,74336
2018-08-07T13:49:42.342Z,75680
2018-08-07T13:50:43.067Z,78880
2018-08-07T13:51:43.815Z,81376
2018-08-07T13:52:44.578Z,82720
2018-08-07T13:53:45.328Z,79904
2018-08-07T13:54:46.072Z,77024
2018-08-07T13:55:46.843Z,75648
2018-08-07T13:56:47.572Z,75136
2018-08-07T13:57:48.317Z,75296
2018-08-07T13:58:49.065Z,72352
2018-08-07T13:59:49.826Z,70848
2018-08-07T14:00:50.585Z,67616
2018-08-07T14:01:51.329Z,64480
2018-08-07T14:02:52.087Z,66336
2018-08-07T14:03:52.833Z,71072
2018-08-07T14:04:53.590Z,74848
2018-08-07T14:05:54.327Z,77376
2018-08-07T14:06:55.094Z,78656
2018-08-07T14:07:55.840Z,77600
2018-08-07T14:08:56.581Z,75872
2018-08-07T14:09:57.327Z,75584
2018-08-07T14:10:58.071Z,72736
2018-08-07T14:11:58.815Z,71136
2018-08-07T14:12:59.565Z,69856
2018-08-07T14:14:00.359Z,70688
2018-08-07T14:15:01.109Z,68640
2018-08-07T14:16:01.850Z,66976
2018-08-07T14:17:02.589Z,68480
2018-08-07T14:18:03.339Z,69664
2018-08-07T14:19:04.128Z,70752
2018-08-07T14:20:04.892Z,71776
2018-08-07T14:21:05.637Z,70464
2018-08-07T14:22:06.379Z,67136
2018-08-07T14:23:07.135Z,62688
2018-08-07T14:24:07.885Z,59136
2018-08-07T14:25:08.637Z,57344
2018-08-07T14:26:09.437Z,59072
2018-08-07T14:27:10.176Z,60832
2018-08-07T14:28:10.927Z,61728
2018-08-07T14:29:11.680Z,62144